Melbourne, FL (32940)

1:12 PM EST on February 08, 2016 (GMT -0500)
Magnolia Springs | | Change Station
CLOSE
Current Station
Personal Weather Station
Location: Viera East, FL
Elevation: 33 ft
Nearby Weather Stations

Elev 33 ft 28.25 °N, 80.70 °W | Updated 37 seconds ago

Clear
Clear
63.7 °F
Feels Like 63.7 °F
N
12.7
Wind Variable Wind from WNW
Gusts 12.7 mph

Today
High -- | Low -- °F
--% Chance of Precip.
Yesterday
High -- | Low -- °F
Precip. -- in
Pressure 30.04 in
Visibility 10.0 miles
Clouds Clear
Dew Point 45 °F
Humidity 50%
Rainfall 0.00 in
Snow Depth Not available.
7:06 AM 6:07 PM
New Moon, 0% visible
METAR KCOF 081758Z AUTO 26011KT 10SM CLR 18/04 A3002 RMK AO2 SLP170 T01810043 10181 20079 58028 $
Pressure 30.04 in
Visibility 10.0 miles
Clouds Clear
Dew Point 45 °F
Humidity 50%
Rainfall 0.00 in
Snow Depth Not available.
7:06 AM 6:07 PM
New Moon, 0% visible
METAR KCOF 081758Z AUTO 26011KT 10SM CLR 18/04 A3002 RMK AO2 SLP170 T01810043 10181 20079 58028 $

10-Day Weather Forecast

Almanac

Astronomy

Feb. 08, 2016 Rise Set
Actual Time
Civil Twilight
Nautical Twilight
Astronomical Twilight
Moon
Length of Visible Light
Length of Day
Tomorrow will be .
, % of the Moon is Illuminated

Today's Extremes

State Highs State Lows

Community

WunderPhotos

Upload Photos

1,891,475 photos uploaded!

WunderBlog® & News

Nearby

Air Quality

  Air Quality AQ Index Pollutant
Not available.

Snow Depth

Station Depth Elevation

Earthquake Activity

City Distance Mag. Time & Date
Minimum magnitude displayed is 2.5.

Coastal Water Temperatures

Place Temperature

Stations

Nearby Weather Stations

Station Location Temp. Windchill Dew Point Humidity Wind Precip. Elev Updated Type
                   

Watches & Warnings

There are currently no watches in effect.